createdAt,value
2022-10-20T00:01:10.352Z,1.50
2022-10-20T00:03:39.603Z,1.58
2022-10-20T00:06:10.303Z,1.60
2022-10-20T00:08:38.802Z,1.70
2022-10-20T00:11:08.301Z,1.77
2022-10-20T00:13:36.705Z,1.65
2022-10-20T00:16:04.959Z,1.50
2022-10-20T00:18:34.642Z,1.48
2022-10-20T00:21:07.578Z,1.63
2022-10-20T00:23:35.557Z,1.20
2022-10-20T00:26:05.592Z,1.73
2022-10-20T00:28:33.402Z,1.53
2022-10-20T00:31:01.806Z,1.75
2022-10-20T00:33:29.663Z,2.33
2022-10-20T00:36:01.776Z,1.23
2022-10-20T00:38:29.743Z,1.75
2022-10-20T00:40:59.976Z,1.58
2022-10-20T00:43:44.104Z,1.33
2022-10-20T00:46:13.628Z,1.30
2022-10-20T00:48:43.947Z,1.50
2022-10-20T00:51:17.250Z,1.42
2022-10-20T00:53:47.409Z,1.23
2022-10-20T00:56:15.825Z,1.52
2022-10-20T00:58:44.820Z,1.95
2022-10-20T01:01:14.858Z,1.65
2022-10-20T01:03:47.871Z,1.30
2022-10-20T01:06:21.107Z,1.50
2022-10-20T01:08:49.761Z,1.45
2022-10-20T01:11:27.139Z,1.33
2022-10-20T01:14:16.369Z,1.58
2022-10-20T01:16:58.430Z,1.45
2022-10-20T01:20:21.782Z,1.50
2022-10-20T01:23:54.715Z,1.48
2022-10-20T01:26:55.457Z,1.50
2022-10-20T01:29:31.057Z,1.70
2022-10-20T01:32:10.845Z,1.45
2022-10-20T01:34:52.184Z,1.30
2022-10-20T01:37:34.363Z,1.60
2022-10-20T01:40:19.733Z,1.30
2022-10-20T01:42:53.004Z,1.48
2022-10-20T01:45:26.679Z,1.15
2022-10-20T01:47:55.850Z,1.38
2022-10-20T01:50:24.679Z,1.48
2022-10-20T01:52:57.661Z,1.60
2022-10-20T01:55:26.076Z,1.45
2022-10-20T01:58:17.205Z,1.85
2022-10-20T02:03:43.162Z,1.63
2022-10-20T02:06:25.700Z,1.40
2022-10-20T02:08:58.951Z,1.40
2022-10-20T02:11:42.968Z,1.30
2022-10-20T02:14:15.503Z,1.52
2022-10-20T02:16:50.335Z,1.40
2022-10-20T02:19:24.662Z,1.38
2022-10-20T02:21:55.069Z,1.40
2022-10-20T02:24:27.853Z,1.30
2022-10-20T02:27:00.647Z,1.55
2022-10-20T02:29:34.626Z,1.45
2022-10-20T02:32:04.078Z,1.52
2022-10-20T02:34:31.823Z,1.50
2022-10-20T02:37:00.252Z,1.50
2022-10-20T02:39:28.184Z,1.55
2022-10-20T02:41:55.931Z,1.40
2022-10-20T02:44:23.858Z,1.70
2022-10-20T02:46:51.764Z,1.25
2022-10-20T02:49:21.546Z,1.50
2022-10-20T02:51:49.457Z,1.30
2022-10-20T02:54:17.215Z,1.30
2022-10-20T02:56:45.013Z,1.20
2022-10-20T02:59:15.020Z,1.60
2022-10-20T03:01:42.884Z,1.27
2022-10-20T03:04:10.820Z,1.52
2022-10-20T03:06:40.382Z,1.45
2022-10-20T03:09:08.683Z,1.52
2022-10-20T03:11:36.738Z,1.42
2022-10-20T03:14:04.499Z,1.48
2022-10-20T03:16:32.356Z,1.40
2022-10-20T03:19:03.490Z,1.73
2022-10-20T03:21:33.438Z,1.50
2022-10-20T03:24:02.527Z,1.42
2022-10-20T03:26:30.295Z,1.40
2022-10-20T03:28:58.029Z,1.50
2022-10-20T03:31:25.788Z,1.40
2022-10-20T03:33:53.565Z,1.55
2022-10-20T03:36:21.520Z,1.42
2022-10-20T03:38:49.234Z,1.58
2022-10-20T03:41:18.319Z,1.10
2022-10-20T03:43:46.109Z,1.40
2022-10-20T03:46:13.830Z,1.25
2022-10-20T03:48:41.793Z,1.90
2022-10-20T03:51:10.273Z,1.73
2022-10-20T03:53:38.055Z,1.50
2022-10-20T03:56:10.491Z,1.33
2022-10-20T03:58:39.652Z,1.50
2022-10-20T04:01:09.379Z,1.45
2022-10-20T04:03:37.179Z,1.25
2022-10-20T04:06:05.294Z,1.48
2022-10-20T04:08:33.161Z,1.15
2022-10-20T04:11:00.962Z,1.40
2022-10-20T04:13:28.714Z,1.13
2022-10-20T04:15:57.770Z,1.60
2022-10-20T04:18:25.546Z,1.55
2022-10-20T04:20:53.336Z,1.60
2022-10-20T04:23:21.080Z,1.50
2022-10-20T04:25:48.882Z,1.40
2022-10-20T04:28:18.532Z,1.63
2022-10-20T04:30:47.685Z,1.38
2022-10-20T04:33:17.503Z,1.40
2022-10-20T04:35:45.411Z,1.50
2022-10-20T04:38:13.140Z,1.55
2022-10-20T04:40:40.854Z,1.23
2022-10-20T04:43:08.578Z,1.60
2022-10-20T04:45:37.642Z,1.60
2022-10-20T04:48:06.584Z,1.33
2022-10-20T04:50:35.629Z,1.30
2022-10-20T04:53:03.348Z,1.33
2022-10-20T04:55:31.108Z,1.30
2022-10-20T04:57:59.286Z,1.58
2022-10-20T05:00:27.082Z,1.40
2022-10-20T05:02:56.279Z,1.50
2022-10-20T05:05:24.011Z,1.45
2022-10-20T05:07:53.167Z,1.30
2022-10-20T05:10:21.033Z,1.35
2022-10-20T05:12:48.812Z,1.30
2022-10-20T05:15:16.828Z,1.58
2022-10-20T05:17:44.541Z,1.50
2022-10-20T05:20:12.366Z,1.40
2022-10-20T05:22:40.198Z,1.42
2022-10-20T05:25:34.948Z,1.38
2022-10-20T05:27:59.164Z,1.42
2022-10-20T05:30:26.959Z,1.63
2022-10-20T05:32:54.745Z,1.35
2022-10-20T05:35:22.468Z,1.20
2022-10-20T05:37:50.244Z,1.67
2022-10-20T05:40:19.444Z,1.27
2022-10-20T05:42:47.230Z,1.23
2022-10-20T05:45:15.348Z,1.15
2022-10-20T05:47:43.728Z,1.73
2022-10-20T05:50:11.783Z,1.25
2022-10-20T05:52:39.659Z,1.58
2022-10-20T05:55:09.851Z,1.50
2022-10-20T05:57:38.954Z,1.67
2022-10-20T06:00:08.607Z,1.38
2022-10-20T06:02:36.791Z,1.40
2022-10-20T06:05:05.443Z,1.38
2022-10-20T06:07:33.177Z,1.70
2022-10-20T06:10:00.914Z,1.30
2022-10-20T06:12:28.652Z,1.63
2022-10-20T06:14:57.692Z,1.35
2022-10-20T06:17:25.680Z,1.58
2022-10-20T06:19:53.393Z,1.33
2022-10-20T06:22:21.121Z,1.42
2022-10-20T06:24:48.927Z,1.35
2022-10-20T06:27:16.633Z,1.67
2022-10-20T06:29:44.329Z,1.13
2022-10-20T06:34:42.360Z,1.50
2022-10-20T06:37:10.799Z,1.30
2022-10-20T06:39:38.735Z,1.40
2022-10-20T06:42:09.634Z,1.48
2022-10-20T06:44:39.804Z,1.58
2022-10-20T06:47:10.182Z,1.35
2022-10-20T06:49:39.350Z,1.35
2022-10-20T06:52:07.160Z,1.60
2022-10-20T06:54:34.923Z,1.60
2022-10-20T06:57:02.647Z,1.38
2022-10-20T06:59:30.363Z,1.42
2022-10-20T07:01:58.763Z,1.33
2022-10-20T07:04:26.573Z,1.48
2022-10-20T07:06:55.726Z,1.60
2022-10-20T07:09:23.508Z,1.58
2022-10-20T07:11:54.331Z,1.60
2022-10-20T07:14:22.372Z,1.33
2022-10-20T07:16:50.160Z,1.50
2022-10-20T07:19:18.003Z,1.58
2022-10-20T07:21:46.353Z,1.55
2022-10-20T07:24:16.626Z,1.20
2022-10-20T07:26:44.702Z,1.30
2022-10-20T07:29:14.543Z,1.50
2022-10-20T07:31:45.650Z,1.35
2022-10-20T07:34:26.457Z,1.60
2022-10-20T07:36:56.399Z,1.30
2022-10-20T07:39:26.918Z,1.20
2022-10-20T07:41:55.208Z,1.40
2022-10-20T07:44:24.063Z,1.45
2022-10-20T07:46:51.879Z,1.42
2022-10-20T07:52:07.588Z,1.30
2022-10-20T07:54:36.724Z,1.13
2022-10-20T07:57:04.734Z,1.10
2022-10-20T07:59:32.534Z,1.25
2022-10-20T08:02:03.439Z,1.35
2022-10-20T08:04:31.939Z,1.60
2022-10-20T08:07:00.685Z,1.25
2022-10-20T08:09:28.573Z,2.00
2022-10-20T08:11:57.886Z,2.58
2022-10-20T08:14:27.610Z,2.65
2022-10-20T08:16:57.522Z,2.60
2022-10-20T08:22:06.971Z,2.90
2022-10-20T08:24:34.733Z,2.97
2022-10-20T08:27:04.344Z,2.45
2022-10-20T08:29:32.124Z,2.28
2022-10-20T08:31:59.914Z,2.97
2022-10-20T08:34:27.695Z,2.60
2022-10-20T08:36:55.458Z,1.92
2022-10-20T08:39:23.296Z,2.20
2022-10-20T08:42:08.032Z,2.22
2022-10-20T08:44:42.523Z,2.28
2022-10-20T08:47:30.875Z,2.55
2022-10-20T08:50:01.913Z,1.92
2022-10-20T08:52:29.942Z,2.10
2022-10-20T08:54:59.544Z,2.22
2022-10-20T08:57:34.652Z,2.30
2022-10-20T09:00:18.345Z,2.08
2022-10-20T09:02:47.539Z,1.92
2022-10-20T09:05:19.315Z,2.10
2022-10-20T09:07:49.908Z,2.17
2022-10-20T09:10:29.019Z,2.22
2022-10-20T09:12:57.274Z,2.17
2022-10-20T09:15:27.877Z,1.85
2022-10-20T09:18:01.143Z,1.90
2022-10-20T09:20:35.773Z,1.65
2022-10-20T09:23:07.914Z,1.90
2022-10-20T09:25:40.912Z,1.77
2022-10-20T09:28:23.852Z,1.88
2022-10-20T09:30:54.141Z,1.73
2022-10-20T09:33:32.020Z,2.03
2022-10-20T09:36:06.222Z,1.85
2022-10-20T09:38:36.516Z,2.25
2022-10-20T09:41:14.097Z,1.95
2022-10-20T09:43:52.170Z,1.88
2022-10-20T09:46:27.597Z,2.05
2022-10-20T09:48:57.292Z,2.28
2022-10-20T09:51:28.803Z,1.73
2022-10-20T09:54:01.269Z,1.70
2022-10-20T09:56:33.916Z,1.88
2022-10-20T09:59:07.508Z,1.95
2022-10-20T10:01:54.768Z,2.00
2022-10-20T10:04:38.321Z,1.95
2022-10-20T10:07:31.679Z,1.63
2022-10-20T10:10:05.678Z,1.80
2022-10-20T10:12:36.657Z,1.65
2022-10-20T10:15:20.463Z,1.38
2022-10-20T10:17:51.419Z,1.70
2022-10-20T10:20:34.729Z,1.90
2022-10-20T10:23:24.151Z,1.80
2022-10-20T10:25:55.047Z,1.75
2022-10-20T10:28:33.507Z,2.20
2022-10-20T10:31:22.348Z,1.50
2022-10-20T10:33:57.689Z,1.83
2022-10-20T10:36:35.697Z,1.90
2022-10-20T10:39:06.421Z,2.03
2022-10-20T10:42:03.485Z,1.40
2022-10-20T10:44:51.825Z,2.28
2022-10-20T10:47:40.176Z,3.47
2022-10-20T10:50:30.743Z,1.77
2022-10-20T10:53:14.337Z,1.67
2022-10-20T10:55:55.664Z,1.90
2022-10-20T10:58:43.290Z,2.17
2022-10-20T11:01:29.068Z,2.00
2022-10-20T11:04:23.944Z,2.03
2022-10-20T11:07:02.299Z,2.30
2022-10-20T11:09:42.012Z,1.90
2022-10-20T11:12:33.798Z,1.80
2022-10-20T11:15:19.977Z,1.98
2022-10-20T11:17:59.479Z,2.00
2022-10-20T11:20:39.030Z,2.10
2022-10-20T11:23:43.572Z,1.73
2022-10-20T11:26:26.734Z,1.98
2022-10-20T11:28:58.887Z,1.95
2022-10-20T11:31:35.332Z,1.88
2022-10-20T11:34:07.687Z,2.10
2022-10-20T11:36:42.416Z,1.92
2022-10-20T11:39:20.822Z,1.98
2022-10-20T11:41:51.696Z,2.00
2022-10-20T11:46:58.764Z,1.90
2022-10-20T11:49:27.102Z,1.95
2022-10-20T11:52:30.941Z,2.20
2022-10-20T11:55:32.071Z,1.95
2022-10-20T12:01:05.724Z,1.70
2022-10-20T12:04:09.667Z,2.13
2022-10-20T12:07:25.827Z,1.73
2022-10-20T12:10:10.340Z,1.58
2022-10-20T12:12:52.219Z,1.83
2022-10-20T12:15:24.298Z,1.90
2022-10-20T12:17:54.698Z,1.70
2022-10-20T12:21:03.372Z,1.77
2022-10-20T12:24:07.591Z,1.70
2022-10-20T12:26:56.491Z,1.63
2022-10-20T12:29:56.034Z,1.52
2022-10-20T12:33:09.862Z,1.70
2022-10-20T12:36:13.390Z,1.85
2022-10-20T12:38:43.034Z,1.52
2022-10-20T12:41:24.599Z,1.73
2022-10-20T12:43:54.943Z,1.63
2022-10-20T12:46:31.380Z,1.75
2022-10-20T12:49:06.636Z,1.77
2022-10-20T12:51:47.609Z,1.70
2022-10-20T12:54:25.969Z,1.83
2022-10-20T12:56:59.916Z,2.00
2022-10-20T12:59:46.509Z,1.75
2022-10-20T13:02:47.573Z,1.65
2022-10-20T13:08:37.273Z,2.00
2022-10-20T13:11:46.152Z,1.73
2022-10-20T13:14:41.942Z,1.80
2022-10-20T13:17:52.166Z,1.95
2022-10-20T13:20:29.150Z,1.63
2022-10-20T13:25:38.231Z,1.70
2022-10-20T13:28:18.437Z,1.55
2022-10-20T13:31:14.413Z,1.77
2022-10-20T13:34:04.338Z,1.73
2022-10-20T13:36:53.124Z,1.70
2022-10-20T13:39:32.747Z,1.60
2022-10-20T13:42:16.909Z,1.52
2022-10-20T13:44:59.460Z,1.77
2022-10-20T13:47:50.313Z,1.90
2022-10-20T13:50:24.232Z,1.52
2022-10-20T13:52:56.999Z,2.03
2022-10-20T13:55:29.402Z,1.70
2022-10-20T13:58:03.818Z,1.60
2022-10-20T14:00:34.351Z,1.65
2022-10-20T14:03:05.628Z,1.95
2022-10-20T14:05:40.067Z,1.67
2022-10-20T14:08:10.393Z,1.65
2022-10-20T14:10:46.203Z,1.77
2022-10-20T14:13:18.925Z,1.90
2022-10-20T14:15:51.289Z,1.77
2022-10-20T14:18:26.865Z,1.92
2022-10-20T14:21:02.523Z,1.60
2022-10-20T14:23:36.628Z,1.73
2022-10-20T14:26:07.561Z,1.60
2022-10-20T14:31:06.206Z,1.75
2022-10-20T14:33:44.211Z,1.52
2022-10-20T14:36:22.891Z,1.55
2022-10-20T14:38:52.800Z,1.90
2022-10-20T14:41:29.354Z,2.05
2022-10-20T14:44:05.049Z,1.73
2022-10-20T14:46:38.424Z,1.67
2022-10-20T14:49:17.086Z,1.55
2022-10-20T14:51:56.282Z,1.67
2022-10-20T14:54:39.116Z,1.83
2022-10-20T14:57:43.238Z,1.42
2022-10-20T15:00:34.418Z,1.83
2022-10-20T15:03:07.138Z,1.50
2022-10-20T15:05:41.057Z,1.52
2022-10-20T15:08:24.929Z,1.65
2022-10-20T15:10:53.919Z,1.40
2022-10-20T15:13:27.860Z,1.75
2022-10-20T15:15:58.263Z,1.80
2022-10-20T15:18:27.582Z,1.63
2022-10-20T15:20:57.345Z,1.60
2022-10-20T15:23:29.074Z,1.55
2022-10-20T15:26:02.815Z,1.60
2022-10-20T15:28:38.725Z,1.70
2022-10-20T15:31:17.112Z,1.60
2022-10-20T15:33:44.855Z,1.95
2022-10-20T15:36:15.622Z,1.65
2022-10-20T15:38:44.759Z,1.70
2022-10-20T15:41:15.207Z,1.73
2022-10-20T15:43:43.106Z,1.48
2022-10-20T15:46:12.214Z,1.60
2022-10-20T15:48:40.389Z,1.88
2022-10-20T15:51:17.225Z,1.60
2022-10-20T15:53:48.479Z,1.88
2022-10-20T15:56:16.411Z,1.50
2022-10-20T15:58:44.362Z,1.70
2022-10-20T16:01:13.557Z,1.60
2022-10-20T16:03:43.250Z,1.77
2022-10-20T16:06:13.358Z,1.70
2022-10-20T16:08:41.471Z,1.77
2022-10-20T16:11:11.667Z,1.67
2022-10-20T16:13:39.564Z,1.67
2022-10-20T16:16:09.849Z,1.88
2022-10-20T16:18:37.575Z,1.40
2022-10-20T16:21:06.692Z,1.88
2022-10-20T16:23:40.761Z,1.85
2022-10-20T16:26:15.450Z,1.50
2022-10-20T16:28:43.651Z,1.70
2022-10-20T16:31:14.106Z,1.52
2022-10-20T16:33:42.024Z,1.90
2022-10-20T16:36:13.421Z,1.70
2022-10-20T16:38:42.105Z,1.75
2022-10-20T16:41:14.227Z,1.85
2022-10-20T16:43:44.554Z,1.35
2022-10-20T16:46:14.722Z,1.77
2022-10-20T16:48:47.287Z,1.40
2022-10-20T16:51:17.330Z,1.30
2022-10-20T16:53:45.198Z,1.83
2022-10-20T16:56:18.198Z,1.58
2022-10-20T16:58:49.035Z,1.60
2022-10-20T17:01:19.647Z,1.33
2022-10-20T17:03:49.775Z,1.83
2022-10-20T17:06:20.256Z,1.57
2022-10-20T17:08:48.327Z,1.70
2022-10-20T17:11:20.535Z,1.50
2022-10-20T17:13:48.323Z,1.50
2022-10-20T17:16:18.985Z,1.75
2022-10-20T17:18:47.106Z,1.50
2022-10-20T17:21:16.535Z,1.73
2022-10-20T17:23:46.061Z,2.08
2022-10-20T17:26:19.226Z,1.77
2022-10-20T17:28:46.997Z,1.45
2022-10-20T17:31:18.337Z,1.35
2022-10-20T17:33:46.865Z,1.42
2022-10-20T17:36:15.046Z,1.60
2022-10-20T17:38:44.106Z,1.48
2022-10-20T17:41:15.084Z,2.03
2022-10-20T17:46:15.496Z,1.45
2022-10-20T17:48:43.346Z,1.60
2022-10-20T17:51:14.229Z,1.48
2022-10-20T17:56:16.221Z,1.50
2022-10-20T17:58:48.466Z,1.40
2022-10-20T18:01:19.588Z,1.60
2022-10-20T18:03:49.615Z,1.45
2022-10-20T18:06:20.117Z,1.70
2022-10-20T18:08:49.460Z,1.58
2022-10-20T18:11:20.444Z,1.60
2022-10-20T18:16:19.998Z,1.58
2022-10-20T18:18:48.765Z,1.67
2022-10-20T18:21:19.037Z,1.50
2022-10-20T18:23:48.306Z,1.55
2022-10-20T18:26:19.063Z,1.85
2022-10-20T18:28:49.490Z,1.60
2022-10-20T18:31:21.066Z,1.75
2022-10-20T18:33:51.371Z,1.63
2022-10-20T18:36:20.730Z,1.67
2022-10-20T18:38:48.841Z,1.58
2022-10-20T18:41:19.178Z,1.52
2022-10-20T18:43:56.881Z,1.58
2022-10-20T18:46:27.028Z,1.50
2022-10-20T18:48:55.255Z,1.77
2022-10-20T18:51:23.996Z,1.35
2022-10-20T18:53:55.445Z,1.60
2022-10-20T18:56:25.145Z,1.17
2022-10-20T18:58:57.208Z,1.30
2022-10-20T19:01:27.816Z,1.42
2022-10-20T19:03:57.380Z,1.27
2022-10-20T19:06:28.413Z,1.52
2022-10-20T19:08:59.287Z,1.45
2022-10-20T19:13:59.086Z,1.58
2022-10-20T19:16:29.262Z,1.35
2022-10-20T19:18:59.609Z,1.50
2022-10-20T19:21:29.218Z,1.67
2022-10-20T19:24:00.401Z,1.63
2022-10-20T19:26:32.051Z,1.55
2022-10-20T19:29:05.265Z,1.60
2022-10-20T19:31:37.373Z,1.50
2022-10-20T19:34:08.536Z,1.30
2022-10-20T19:36:36.613Z,1.80
2022-10-20T19:39:07.121Z,1.65
2022-10-20T19:41:34.927Z,1.77
2022-10-20T19:44:04.766Z,1.50
2022-10-20T19:46:32.612Z,1.60
2022-10-20T19:49:00.774Z,1.35
2022-10-20T19:51:28.596Z,1.13
2022-10-20T19:53:56.325Z,1.60
2022-10-20T19:56:24.384Z,1.65
2022-10-20T19:58:52.172Z,1.40
2022-10-20T20:01:21.444Z,1.27
2022-10-20T20:03:49.301Z,1.60
2022-10-20T20:06:21.025Z,1.58
2022-10-20T20:08:52.741Z,1.52
2022-10-20T20:11:26.337Z,1.70
2022-10-20T20:13:57.534Z,1.30
2022-10-20T20:16:27.618Z,1.60
2022-10-20T20:18:55.599Z,1.45
2022-10-20T20:21:24.724Z,1.48
2022-10-20T20:23:59.210Z,1.60
2022-10-20T20:26:28.464Z,1.63
2022-10-20T20:28:57.531Z,1.40
2022-10-20T20:31:27.989Z,1.02
2022-10-20T20:33:57.674Z,1.10
2022-10-20T20:36:27.653Z,1.48
2022-10-20T20:38:57.879Z,1.55
2022-10-20T20:41:30.086Z,1.35
2022-10-20T20:43:58.486Z,1.25
2022-10-20T20:46:31.007Z,1.40
2022-10-20T20:48:59.185Z,1.50
2022-10-20T20:51:29.073Z,1.23
2022-10-20T20:53:56.980Z,1.75
2022-10-20T20:56:26.951Z,1.38
2022-10-20T20:58:55.866Z,1.45
2022-10-20T21:01:28.145Z,1.30
2022-10-20T21:03:57.700Z,1.40
2022-10-20T21:06:33.358Z,1.30
2022-10-20T21:09:06.962Z,1.10
2022-10-20T21:11:34.822Z,1.60
2022-10-20T21:14:02.661Z,1.30
2022-10-20T21:16:35.481Z,1.30
2022-10-20T21:19:07.907Z,1.25
2022-10-20T21:21:38.715Z,1.67
2022-10-20T21:24:07.521Z,1.27
2022-10-20T21:26:35.420Z,1.45
2022-10-20T21:29:03.324Z,1.15
2022-10-20T21:31:32.808Z,1.50
2022-10-20T21:34:03.568Z,1.30
2022-10-20T21:36:34.713Z,1.40
2022-10-20T21:39:03.074Z,1.17
2022-10-20T21:41:33.969Z,1.40
2022-10-20T21:46:36.032Z,1.08
2022-10-20T21:49:07.776Z,1.27
2022-10-20T21:51:38.556Z,1.50
2022-10-20T21:54:08.998Z,1.63
2022-10-20T21:56:38.835Z,1.25
2022-10-20T21:59:07.772Z,1.50
2022-10-20T22:01:36.909Z,1.40
2022-10-20T22:04:04.923Z,1.42
2022-10-20T22:06:32.693Z,1.10
2022-10-20T22:09:00.930Z,1.42
2022-10-20T22:11:31.870Z,1.23
2022-10-20T22:16:31.495Z,1.70
2022-10-20T22:19:04.914Z,1.60
2022-10-20T22:21:33.503Z,2.05
2022-10-20T22:24:01.387Z,1.52
2022-10-20T22:26:30.974Z,1.25
2022-10-20T22:29:00.815Z,1.27
2022-10-20T22:31:29.165Z,2.00
2022-10-20T22:34:00.462Z,1.30
2022-10-20T22:36:29.061Z,1.40
2022-10-20T22:38:57.166Z,1.20
2022-10-20T22:41:25.298Z,1.50
2022-10-20T22:43:53.258Z,1.20
2022-10-20T22:46:21.652Z,1.20
2022-10-20T22:48:49.575Z,1.35
2022-10-20T22:51:19.331Z,1.00
2022-10-20T22:53:47.173Z,1.30
2022-10-20T22:56:18.541Z,1.30
2022-10-20T22:58:46.790Z,1.20
2022-10-20T23:01:18.004Z,1.50
2022-10-20T23:03:46.570Z,1.30
2022-10-20T23:06:19.426Z,1.15
2022-10-20T23:08:50.458Z,1.30
2022-10-20T23:11:19.685Z,1.00
2022-10-20T23:13:49.820Z,1.40
2022-10-20T23:16:17.714Z,1.40
2022-10-20T23:18:45.432Z,1.77
2022-10-20T23:21:15.350Z,1.30
2022-10-20T23:23:45.196Z,1.40
2022-10-20T23:26:14.143Z,1.33
2022-10-20T23:28:42.191Z,1.50
2022-10-20T23:31:12.689Z,1.20
2022-10-20T23:33:42.227Z,1.38
2022-10-20T23:36:11.057Z,1.60
2022-10-20T23:38:38.791Z,1.70
2022-10-20T23:41:08.427Z,1.30
2022-10-20T23:46:12.004Z,1.52
2022-10-20T23:48:40.809Z,1.60
2022-10-20T23:51:09.081Z,1.33
2022-10-20T23:53:37.178Z,1.52
2022-10-20T23:56:07.297Z,1.35
2022-10-20T23:58:35.143Z,1.20
